Time,TemperatureF,DewpointF,PressureIn,WindDirection,WindDirectionDegrees,WindSpeedMPH,WindSpeedGustMPH,Humidity,HourlyPrecipIn,Conditions,Clouds,dailyrainin,SolarRadiationWatts/m^2,SoftwareType,DateUTC
2013-04-27 00:00:00,70.7,68.9,30.05,SSE,158,1.0,6.0,94,0.00,,,0.00,0.00,VWS V14.00,2013-04-27 05:00:00,
2013-04-27 00:15:00,70.7,68.9,30.05,ESE,112,1.0,4.0,94,0.00,,,0.00,0.00,VWS V14.00,2013-04-27 05:15:00,
2013-04-27 00:30:00,70.9,69.1,30.05,SSE,158,1.0,4.0,94,0.00,,,0.00,0.00,VWS V14.00,2013-04-27 05:30:00,
2013-04-27 00:45:00,71.0,69.2,30.04,SE,135,1.0,6.0,94,0.00,,,0.00,0.00,VWS V14.00,2013-04-27 05:45:00,
2013-04-27 01:00:00,71.0,69.2,30.04,ESE,112,1.0,4.0,94,0.00,,,0.00,0.00,VWS V14.00,2013-04-27 06:00:00,
2013-04-27 01:15:00,70.9,69.1,30.04,ESE,112,1.0,4.0,94,0.00,,,0.00,0.00,VWS V14.00,2013-04-27 06:15:00,
2013-04-27 01:30:00,71.0,69.2,30.04,ESE,112,1.0,3.0,94,0.00,,,0.00,0.00,VWS V14.00,2013-04-27 06:30:00,
2013-04-27 01:45:00,71.0,69.2,30.03,East,90,1.0,4.0,94,0.00,,,0.00,0.00,VWS V14.00,2013-04-27 06:45:00,
2013-04-27 02:00:00,70.8,69.0,30.02,SE,135,1.0,5.0,94,0.00,,,0.00,0.00,VWS V14.00,2013-04-27 07:00:00,
2013-04-27 02:15:00,70.7,68.9,30.02,ESE,112,1.0,5.0,94,0.00,,,0.00,0.00,VWS V14.00,2013-04-27 07:15:00,
2013-04-27 02:30:00,70.3,68.5,30.01,East,90,1.0,5.0,94,0.00,,,0.00,0.00,VWS V14.00,2013-04-27 07:30:00,
2013-04-27 02:45:00,70.3,68.8,30.00,East,90,1.0,4.0,95,0.00,,,0.00,0.00,VWS V14.00,2013-04-27 07:45:00,
2013-04-27 03:00:00,70.3,68.8,29.99,East,90,1.0,6.0,95,0.00,,,0.00,0.00,VWS V14.00,2013-04-27 08:00:00,
2013-04-27 03:15:00,70.4,68.9,29.98,ESE,112,2.0,6.0,95,0.00,,,0.00,0.00,VWS V14.00,2013-04-27 08:15:00,
2013-04-27 03:30:00,70.4,68.9,29.98,ESE,112,2.0,7.0,95,0.00,,,0.00,0.00,VWS V14.00,2013-04-27 08:30:00,
2013-04-27 03:45:00,70.5,69.0,29.98,ESE,112,2.0,9.0,95,0.00,,,0.00,0.00,VWS V14.00,2013-04-27 08:45:00,
2013-04-27 04:00:00,70.4,68.9,29.98,East,90,1.0,5.0,95,0.00,,,0.00,0.00,VWS V14.00,2013-04-27 09:00:00,
2013-04-27 04:15:00,70.4,68.9,29.97,ESE,112,1.0,4.0,95,0.00,,,0.00,0.00,VWS V14.00,2013-04-27 09:15:00,
2013-04-27 04:30:00,70.4,68.9,29.97,ESE,112,1.0,6.0,95,0.00,,,0.00,0.00,VWS V14.00,2013-04-27 09:30:00,
2013-04-27 04:45:00,70.4,68.9,29.97,SE,135,1.0,7.0,95,0.00,,,0.00,0.00,VWS V14.00,2013-04-27 09:45:00,
2013-04-27 05:00:00,70.3,68.8,29.97,ESE,112,1.0,5.0,95,0.00,,,0.00,0.00,VWS V14.00,2013-04-27 10:00:00,
2013-04-27 05:15:00,70.3,68.8,29.97,SSE,158,1.0,5.0,95,0.00,,,0.00,0.00,VWS V14.00,2013-04-27 10:15:00,
2013-04-27 05:30:00,70.5,69.0,29.98,SSE,158,1.0,4.0,95,0.00,,,0.00,0.00,VWS V14.00,2013-04-27 10:30:00,
2013-04-27 05:45:00,70.7,69.2,29.98,SSE,161,0.0,3.0,95,0.00,,,0.00,0.00,VWS V14.00,2013-04-27 10:45:00,
2013-04-27 06:00:00,70.6,69.1,29.98,ESE,112,0.0,3.0,95,0.00,,,0.00,0.00,VWS V14.00,2013-04-27 11:00:00,
2013-04-27 06:15:00,70.4,68.9,29.97,ESE,112,1.0,4.0,95,0.00,,,0.00,0.00,VWS V14.00,2013-04-27 11:15:00,
2013-04-27 06:30:00,70.4,68.9,29.97,East,90,1.0,4.0,95,0.00,,,0.00,0.00,VWS V14.00,2013-04-27 11:30:00,
2013-04-27 06:45:00,70.4,68.9,29.97,East,90,2.0,5.0,95,0.00,,,0.00,0.00,VWS V14.00,2013-04-27 11:45:00,
2013-04-27 07:00:00,70.6,69.1,29.98,East,90,1.0,6.0,95,0.00,,,0.00,0.00,VWS V14.00,2013-04-27 12:00:00,
2013-04-27 07:15:00,70.7,69.2,29.98,East,90,1.0,4.0,95,0.00,,,0.00,6.00,VWS V14.00,2013-04-27 12:15:00,
2013-04-27 07:30:00,70.8,69.3,29.99,East,90,1.0,4.0,95,0.00,,,0.00,30.00,VWS V14.00,2013-04-27 12:30:00,
2013-04-27 07:45:00,71.0,69.8,29.99,ESE,112,1.0,4.0,96,0.00,,,0.00,52.00,VWS V14.00,2013-04-27 12:45:00,
2013-04-27 08:00:00,71.3,70.1,30.00,East,90,1.0,5.0,96,0.00,,,0.00,60.00,VWS V14.00,2013-04-27 13:00:00,
2013-04-27 08:15:00,71.4,70.2,30.00,East,90,1.0,6.0,96,0.00,,,0.00,72.00,VWS V14.00,2013-04-27 13:15:00,
2013-04-27 08:30:00,71.6,70.4,30.01,ESE,112,1.0,5.0,96,0.00,,,0.00,74.00,VWS V14.00,2013-04-27 13:30:00,
2013-04-27 08:45:00,71.8,70.6,30.01,East,90,1.0,4.0,96,0.00,,,0.00,73.00,VWS V14.00,2013-04-27 13:45:00,
2013-04-27 09:00:00,72.0,70.5,30.01,ESE,112,1.0,4.0,95,0.00,,,0.00,74.00,VWS V14.00,2013-04-27 14:00:00,
2013-04-27 09:15:00,72.3,70.8,30.01,East,90,1.0,6.0,95,0.00,,,0.00,108.00,VWS V14.00,2013-04-27 14:15:00,
2013-04-27 09:30:00,72.6,71.1,30.02,ESE,112,2.0,7.0,95,0.00,,,0.00,125.00,VWS V14.00,2013-04-27 14:30:00,
2013-04-27 09:45:00,73.0,71.2,30.02,ESE,112,2.0,8.0,94,0.00,,,0.00,173.00,VWS V14.00,2013-04-27 14:45:00,
2013-04-27 10:00:00,73.6,71.5,30.02,ESE,112,2.0,6.0,93,0.00,,,0.00,201.00,VWS V14.00,2013-04-27 15:00:00,
2013-04-27 10:15:00,73.9,71.1,30.02,ESE,112,2.0,9.0,91,0.00,,,0.00,194.00,VWS V14.00,2013-04-27 15:15:00,
2013-04-27 10:30:00,74.6,71.5,30.03,SSE,158,2.0,5.0,90,0.00,,,0.00,281.00,VWS V14.00,2013-04-27 15:30:00,
2013-04-27 10:45:00,75.4,71.9,30.03,SSE,158,2.0,7.0,89,0.00,,,0.00,313.00,VWS V14.00,2013-04-27 15:45:00,
2013-04-27 11:00:00,76.0,72.2,30.03,South,180,2.0,6.0,88,0.00,,,0.00,301.00,VWS V14.00,2013-04-27 16:00:00,
2013-04-27 11:15:00,76.4,72.2,30.03,SE,135,3.0,7.0,87,0.00,,,0.00,487.00,VWS V14.00,2013-04-27 16:15:00,
2013-04-27 11:30:00,76.5,72.0,30.03,SE,135,3.0,10.0,86,0.00,,,0.00,325.00,VWS V14.00,2013-04-27 16:30:00,
2013-04-27 11:45:00,76.3,71.8,30.03,SE,135,3.0,9.0,86,0.00,,,0.00,275.00,VWS V14.00,2013-04-27 16:45:00,
2013-04-27 12:00:00,76.9,72.1,30.03,East,90,4.0,12.0,85,0.00,,,0.00,403.00,VWS V14.00,2013-04-27 17:00:00,
2013-04-27 12:15:00,76.4,71.6,30.03,ESE,112,4.0,12.0,85,0.00,,,0.00,324.00,VWS V14.00,2013-04-27 17:15:00,
2013-04-27 12:30:00,76.2,71.7,30.03,ESE,112,4.0,10.0,86,0.00,,,0.00,326.00,VWS V14.00,2013-04-27 17:30:00,
2013-04-27 12:45:00,76.7,71.9,30.02,SE,135,4.0,11.0,85,0.00,,,0.00,492.00,VWS V14.00,2013-04-27 17:45:00,
2013-04-27 13:00:00,76.0,71.2,30.02,SE,135,3.0,10.0,85,0.00,,,0.00,153.00,VWS V14.00,2013-04-27 18:00:00,
2013-04-27 13:15:00,77.0,72.2,30.01,SE,135,5.0,14.0,85,0.00,,,0.00,589.00,VWS V14.00,2013-04-27 18:15:00,
2013-04-27 13:30:00,77.8,71.9,30.01,ESE,112,4.0,10.0,82,0.00,,,0.00,641.00,VWS V14.00,2013-04-27 18:30:00,
2013-04-27 13:45:00,77.8,71.9,30.01,ESE,112,4.0,10.0,82,0.00,,,0.00,509.00,VWS V14.00,2013-04-27 18:45:00,
2013-04-27 14:00:00,78.0,71.7,30.00,East,90,5.0,12.0,81,0.00,,,0.00,520.00,VWS V14.00,2013-04-27 19:00:00,
2013-04-27 14:19:00,77.8,71.9,29.99,ESE,112,5.0,13.0,82,0.00,,,0.00,517.00,VWS V14.00,2013-04-27 19:19:00,
2013-04-27 14:30:00,78.7,72.0,29.98,ESE,121,6.0,11.0,80,0.00,,,0.00,868.00,VWS V14.00,2013-04-27 19:30:00,
2013-04-27 14:45:00,79.4,72.3,29.97,ESE,119,4.0,12.0,79,0.00,,,0.00,860.00,VWS V14.00,2013-04-27 19:45:00,
2013-04-27 15:00:00,79.3,71.5,29.96,ESE,112,6.0,13.0,77,0.00,,,0.00,853.00,VWS V14.00,2013-04-27 20:00:00,
2013-04-27 15:15:00,79.2,71.0,29.97,SSE,158,6.0,15.0,76,0.00,,,0.00,809.00,VWS V14.00,2013-04-27 20:15:00,
2013-04-27 15:30:00,78.8,71.0,29.96,SSE,158,6.0,14.0,77,0.00,,,0.00,758.00,VWS V14.00,2013-04-27 20:30:00,
2013-04-27 15:45:00,79.6,71.8,29.95,South,180,5.0,15.0,77,0.00,,,0.00,766.00,VWS V14.00,2013-04-27 20:45:00,
2013-04-27 16:00:00,79.9,71.3,29.94,SSE,158,4.0,13.0,75,0.00,,,0.00,670.00,VWS V14.00,2013-04-27 21:00:00,
2013-04-27 16:15:00,79.9,72.1,29.93,SSE,158,4.0,13.0,77,0.00,,,0.00,690.00,VWS V14.00,2013-04-27 21:15:00,
2013-04-27 16:30:00,79.3,71.8,29.92,South,180,5.0,12.0,78,0.00,,,0.00,645.00,VWS V14.00,2013-04-27 21:30:00,
2013-04-27 16:45:00,78.5,71.4,29.92,ESE,112,5.0,13.0,79,0.00,,,0.00,587.00,VWS V14.00,2013-04-27 21:45:00,
2013-04-27 17:00:00,78.5,71.8,29.91,ESE,112,4.0,14.0,80,0.00,,,0.00,569.00,VWS V14.00,2013-04-27 22:00:00,
2013-04-27 17:15:00,77.8,71.5,29.90,ESE,112,4.0,13.0,81,0.00,,,0.00,441.00,VWS V14.00,2013-04-27 22:15:00,
2013-04-27 17:30:00,77.5,71.6,29.91,ESE,112,5.0,13.0,82,0.00,,,0.00,453.00,VWS V14.00,2013-04-27 22:30:00,
2013-04-27 17:45:00,77.1,71.5,29.91,ESE,112,5.0,13.0,83,0.00,,,0.00,389.00,VWS V14.00,2013-04-27 22:45:00,
2013-04-27 18:00:00,76.6,71.4,29.90,South,180,5.0,11.0,84,0.00,,,0.00,321.00,VWS V14.00,2013-04-27 23:00:00,
2013-04-27 18:15:00,76.3,71.5,29.90,ESE,112,5.0,12.0,85,0.00,,,0.00,292.00,VWS V14.00,2013-04-27 23:15:00,
2013-04-27 18:30:00,76.0,71.2,29.91,SSE,158,5.0,11.0,85,0.00,,,0.00,260.00,VWS V14.00,2013-04-27 23:30:00,
2013-04-27 18:45:00,75.7,70.9,29.90,ESE,112,5.0,14.0,85,0.00,,,0.00,241.00,VWS V14.00,2013-04-27 23:45:00,
2013-04-27 19:00:00,75.1,71.0,29.91,ESE,112,4.0,10.0,87,0.00,,,0.00,112.00,VWS V14.00,2013-04-28 00:00:00,
2013-04-27 19:15:00,74.5,70.7,29.91,ESE,112,4.0,12.0,88,0.00,,,0.00,58.00,VWS V14.00,2013-04-28 00:15:00,
2013-04-27 19:30:00,74.1,70.7,29.90,ESE,112,4.0,12.0,89,0.00,,,0.00,39.00,VWS V14.00,2013-04-28 00:30:00,
2013-04-27 19:45:00,73.8,70.7,29.91,East,90,4.0,11.0,90,0.00,,,0.00,16.00,VWS V14.00,2013-04-28 00:45:00,
2013-04-27 20:00:00,73.5,70.4,29.91,ESE,112,4.0,11.0,90,0.00,,,0.00,9.00,VWS V14.00,2013-04-28 01:00:00,
2013-04-27 20:15:00,73.3,70.5,29.91,East,90,4.0,10.0,91,0.00,,,0.00,0.00,VWS V14.00,2013-04-28 01:15:00,
2013-04-27 20:30:00,73.0,70.2,29.91,ESE,112,4.0,12.0,91,0.00,,,0.00,0.00,VWS V14.00,2013-04-28 01:30:00,
2013-04-27 20:45:00,72.9,70.1,29.91,ESE,112,3.0,11.0,91,0.00,,,0.00,0.00,VWS V14.00,2013-04-28 01:45:00,
2013-04-27 21:00:00,72.8,70.3,29.91,ESE,112,4.0,12.0,92,0.00,,,0.00,0.00,VWS V14.00,2013-04-28 02:00:00,
2013-04-27 21:15:00,72.7,70.2,29.94,East,90,4.0,11.0,92,0.00,,,0.00,0.00,VWS V14.00,2013-04-28 02:15:00,
2013-04-27 21:30:00,72.7,70.2,29.95,ESE,112,3.0,9.0,92,0.00,,,0.00,0.00,VWS V14.00,2013-04-28 02:30:00,
2013-04-27 21:45:00,72.7,70.2,29.94,ESE,112,3.0,10.0,92,0.00,,,0.00,0.00,VWS V14.00,2013-04-28 02:45:00,
2013-04-27 22:00:00,72.9,70.4,29.95,East,90,3.0,11.0,92,0.00,,,0.00,0.00,VWS V14.00,2013-04-28 03:00:00,
2013-04-27 22:15:00,72.9,70.4,29.97,East,90,3.0,10.0,92,0.00,,,0.00,0.00,VWS V14.00,2013-04-28 03:15:00,
2013-04-27 22:30:00,72.8,70.3,29.98,ESE,112,3.0,12.0,92,0.00,,,0.00,0.00,VWS V14.00,2013-04-28 03:30:00,
2013-04-27 22:45:00,72.8,70.3,29.97,East,90,3.0,11.0,92,0.00,,,0.00,0.00,VWS V14.00,2013-04-28 03:45:00,
2013-04-27 23:00:00,72.8,70.3,29.97,ESE,112,3.0,10.0,92,0.00,,,0.00,0.00,VWS V14.00,2013-04-28 04:00:00,
2013-04-27 23:15:00,72.8,70.3,29.98,East,90,3.0,11.0,92,0.00,,,0.00,0.00,VWS V14.00,2013-04-28 04:15:00,
2013-04-27 23:30:00,72.6,70.2,29.98,East,90,2.0,7.0,92,0.00,,,0.00,0.00,VWS V14.00,2013-04-28 04:30:00,
2013-04-27 23:45:00,72.6,70.2,29.98,ESE,112,3.0,9.0,92,0.00,,,0.00,0.00,VWS V14.00,2013-04-28 04:45:00,